»·PEaware :: N615KQ KSMX-KBFL

N615KQ :: KSMX-KBFL

FLIGHT INFORMATION

Flight Status: Arrived
Operator: Privately registered:
United States
More flights under this callsign
Pilot: Jared L. (23098)
Aircraft: Unknown
(KODI)
More flights by this aircraft type
Origin: KSMX Santa Maria Pub/Capt Hancock
United States
Destination: KBFL Meadows
United States
More flights between these airports :: More routes between these airports
Route: +
File this flight plan on PilotEdge
Remarks: CAT5
Altitude:
(Current/Filed)
7,000ft
Speed:
(Current/Filed)
100kts
Departed: 24-Jan-19 03:08 PM
Arrived: 24-Jan-19 03:45 PM
Distance/Time
Traveled:
76nm/0:36
Distance/Time
To Go:
Arrived

Flight Plot

Page will automatically refresh every two minutes.


Map Options




Map Legend


Flown Route
Filed Route
Departure Airport
Arrival Airport
Navaid (VOR, NDB)
Fix

Horizontal Profiles

Position Reports

Time Latitude Longitude Heading Altitude Ground
Speed
24-Jan-19 14:56 34.900591 -120.450895 151 266ft 0kts
24-Jan-19 14:57 34.900591 -120.450895 151 266ft 0kts
24-Jan-19 14:58 34.900585 -120.450891 155 266ft 0kts
24-Jan-19 15:00 34.900585 -120.450891 155 266ft 0kts
24-Jan-19 15:01 34.897143 -120.448577 135 266ft 21kts
24-Jan-19 15:02 34.893863 -120.444872 158 265ft 8kts
24-Jan-19 15:03 34.893763 -120.444882 228 265ft 0kts
24-Jan-19 15:04 34.893763 -120.444882 228 265ft 0kts
24-Jan-19 15:05 34.893746 -120.444908 229 265ft 0kts
24-Jan-19 15:06 34.893549 -120.444985 270 266ft 0kts
24-Jan-19 15:07 34.893181 -120.446335 312 266ft 25kts
24-Jan-19 15:08 34.913514 -120.470767 313 1114ft 118kts
24-Jan-19 15:09 34.935619 -120.462825 73 2060ft 131kts
24-Jan-19 15:10 34.939193 -120.420860 81 3136ft 121kts
24-Jan-19 15:11 34.943643 -120.385987 73 4650ft 105kts
24-Jan-19 15:12 34.948865 -120.349321 73 5812ft 112kts
24-Jan-19 15:13 34.954905 -120.306329 74 6127ft 143kts
24-Jan-19 15:14 34.962274 -120.258121 74 6126ft 145kts
24-Jan-19 15:15 34.974246 -120.211831 51 6132ft 141kts
24-Jan-19 15:16 35.002246 -120.179459 37 6127ft 139kts
24-Jan-19 15:17 35.031617 -120.148520 37 6127ft 139kts
24-Jan-19 15:17 35.056020 -120.122756 37 6127ft 139kts
24-Jan-19 15:18 35.085570 -120.091747 37 6129ft 141kts
24-Jan-19 15:19 35.115027 -120.060075 55 6134ft 142kts
24-Jan-19 15:20 35.129649 -120.014872 66 6146ft 144kts
24-Jan-19 15:22 35.146306 -119.961296 65 6149ft 148kts
24-Jan-19 15:22 35.159322 -119.920494 65 6146ft 155kts
24-Jan-19 15:23 35.175137 -119.871359 65 6147ft 155kts
24-Jan-19 15:24 35.191045 -119.821802 65 6148ft 157kts
24-Jan-19 15:25 35.192782 -119.768750 87 6149ft 158kts
24-Jan-19 15:26 35.192073 -119.714784 87 6146ft 157kts
24-Jan-19 15:27 35.204948 -119.664560 63 6147ft 156kts
24-Jan-19 15:28 35.222671 -119.616505 62 6147ft 155kts
24-Jan-19 15:29 35.240800 -119.568840 62 6120ft 156kts
24-Jan-19 15:30 35.258917 -119.521277 62 6120ft 156kts
24-Jan-19 15:31 35.277162 -119.473212 62 6120ft 157kts
24-Jan-19 15:32 35.295396 -119.425133 62 5699ft 153kts
24-Jan-19 15:33 35.313163 -119.378136 62 4578ft 142kts
24-Jan-19 15:34 35.328144 -119.338483 63 4617ft 121kts
24-Jan-19 15:35 35.342004 -119.301683 63 3874ft 127kts
24-Jan-19 15:36 35.356600 -119.262838 63 3404ft 123kts
24-Jan-19 15:37 35.371314 -119.223706 63 3402ft 127kts
24-Jan-19 15:38 35.391457 -119.190364 38 3401ft 126kts
24-Jan-19 15:39 35.418672 -119.163032 38 3402ft 126kts
24-Jan-19 15:40 35.434810 -119.124443 73 2577ft 126kts
24-Jan-19 15:41 35.434988 -119.084343 119 1987ft 126kts
24-Jan-19 15:42 35.412010 -119.051292 133 1465ft 129kts
24-Jan-19 15:43 35.420799 -119.040542 316 959ft 86kts
24-Jan-19 15:44 35.433341 -119.054388 5 491ft 12kts
24-Jan-19 15:45 35.433489 -119.054381 1 492ft 0kts
24-Jan-19 15:46 35.435364 -119.053814 12 500ft 7kts
24-Jan-19 15:47 35.435669 -119.053443 146 501ft 0kts
24-Jan-19 15:48 35.435670 -119.053443 146 501ft 0kts
24-Jan-19 15:49 35.435670 -119.053443 146 501ft 0kts

Navigation Log

Ident Type
Flight plan parsing failed, navigation log unavailable